Archival Weather

Chicago O'Hare International

Chicago, Illinois (KORD)

Report from: Wednesday, March 27, 2024 7:51 AM CDT
Current time: Tuesday, May 21, 2024 11:40 AM CDT

Current weather – Weather history – Daily summaries
Weather forecast

Temperature-1.7°C (28.9°F)
Wind chill-8.0°C (17.7°F)
Dew point-7.2°C (19.0°F)
Winds 13 kts (6.7 m/s, 15 mph) West (280°)
Wind gusts 22 kts (11.3 m/s, 25.3 mph)
Visibility10 mi. (16.1 km)
Clouds Ceiling: Overcast 2,400 ft. (732 m)
Altimeter29.97 in.Hg (1015 mB)
Relative humidity66 %
Density altitude-2,067 ft. (-630 m)
Sea-level pressure101.6 kPa (1016 mB, 29.99 in.Hg)
Remarks System requires maintenance
Automated weather observing station with precipitation discriminator
Flight conditions Marginal Visual Meteorological Conditions
Raw dataKORD 271251Z 28013G22KT 10SM OVC024 M02/M07 A2997 RMK AO2 SLP155 T10171072 $
An error has occurred. This application may no longer respond until reloaded. Reload 🗙